Time;durP1;ratioP1;P1;durP2;ratioP2;P2;SDS_P1;SDS_P2;PMS_P1;PMS_P2;Temp;Humidity;BMP_temperature;BMP_pressure;BME280_temperature;BME280_humidity;BME280_pressure;Samples;Min_cycle;Max_cycle;Signal;HPM_P1;HPM_P2
2020/12/15 00:02:33;;;;;;;27.07;11.60;;;;;;;;;;4968071;28;20209;-74
2020/12/15 00:05:38;;;;;;;24.20;10.90;;;;;;;;;;4972584;28;20237;-75
2020/12/15 00:08:44;;;;;;;24.60;11.10;;;;;;;;;;4965612;28;20612;-75
2020/12/15 00:11:48;;;;;;;24.77;11.10;;;;;;;;;;4974482;28;20217;-76
2020/12/15 00:14:53;;;;;;;22.47;10.77;;;;;;;;;;4972000;28;20304;-76
2020/12/15 00:18:00;;;;;;;23.70;10.40;;;;;;;;;;4964288;28;20209;-76
2020/12/15 00:21:04;;;;;;;23.13;10.40;;;;;;;;;;4972169;28;20669;-75
2020/12/15 00:24:11;;;;;;;25.23;11.53;;;;;;;;;;4972630;28;20260;-76
2020/12/15 00:27:16;;;;;;;21.93;10.63;;;;;;;;;;4966473;28;20235;-75
2020/12/15 00:30:21;;;;;;;25.50;10.77;;;;;;;;;;4972278;28;20209;-75
2020/12/15 00:33:25;;;;;;;24.63;11.40;;;;;;;;;;4973560;28;20242;-76
2020/12/15 00:36:30;;;;;;;26.20;11.53;;;;;;;;;;4965501;28;20614;-75
2020/12/15 00:39:36;;;;;;;23.10;11.40;;;;;;;;;;4964839;28;20241;-76
2020/12/15 00:42:41;;;;;;;29.40;12.00;;;;;;;;;;4968377;28;20209;-75
2020/12/15 00:45:45;;;;;;;25.73;12.13;;;;;;;;;;4971566;28;20606;-76
2020/12/15 00:48:50;;;;;;;25.67;11.07;;;;;;;;;;4971422;28;20218;-75
2020/12/15 00:51:55;;;;;;;28.47;12.07;;;;;;;;;;4966814;28;20252;-76
2020/12/15 00:55:01;;;;;;;25.90;10.80;;;;;;;;;;4975106;28;20213;-76
2020/12/15 00:58:06;;;;;;;25.30;11.50;;;;;;;;;;4971161;28;20237;-76
2020/12/15 01:01:11;;;;;;;23.17;10.37;;;;;;;;;;4964569;28;20574;-75
2020/12/15 01:04:16;;;;;;;23.83;11.03;;;;;;;;;;4968927;28;20248;-75
2020/12/15 01:07:21;;;;;;;24.23;11.50;;;;;;;;;;4970246;28;20709;-76
2020/12/15 01:10:26;;;;;;;26.47;11.40;;;;;;;;;;4972125;28;20341;-75
2020/12/15 01:13:31;;;;;;;25.30;11.87;;;;;;;;;;4990388;28;20236;-75
2020/12/15 01:16:38;;;;;;;25.37;11.97;;;;;;;;;;4993983;28;20217;-76
2020/12/15 01:19:43;;;;;;;30.83;13.00;;;;;;;;;;4974458;28;20730;-76
2020/12/15 01:22:48;;;;;;;35.83;13.07;;;;;;;;;;4970165;28;20259;-76
2020/12/15 01:26:04;;;;;;;31.97;12.97;;;;;;;;;;4975655;28;20835;-74
2020/12/15 01:29:10;;;;;;;31.00;13.10;;;;;;;;;;4975431;28;20209;-75
2020/12/15 01:32:15;;;;;;;32.83;12.87;;;;;;;;;;4986275;28;20208;-75
2020/12/15 01:35:23;;;;;;;30.67;12.20;;;;;;;;;;4969718;28;20269;-75
2020/12/15 01:38:28;;;;;;;26.30;10.90;;;;;;;;;;4967894;28;20670;-75
2020/12/15 01:41:34;;;;;;;25.40;10.43;;;;;;;;;;4975031;28;20755;-75
2020/12/15 01:44:39;;;;;;;22.90;11.03;;;;;;;;;;4975078;28;20309;-76
2020/12/15 01:47:44;;;;;;;23.03;10.50;;;;;;;;;;4974768;28;20270;-75
2020/12/15 01:50:49;;;;;;;25.00;10.83;;;;;;;;;;4974795;28;20226;-75
2020/12/15 01:53:58;;;;;;;23.53;10.67;;;;;;;;;;4973198;28;20226;-75
2020/12/15 01:57:08;;;;;;;23.47;10.33;;;;;;;;;;4974572;28;20289;-76
2020/12/15 02:00:26;;;;;;;25.63;10.37;;;;;;;;;;4967463;28;20230;-76
2020/12/15 02:03:46;;;;;;;24.93;10.67;;;;;;;;;;4974483;28;20624;-76
2020/12/15 02:07:20;;;;;;;24.57;10.30;;;;;;;;;;4971527;28;20701;-76
2020/12/15 02:10:26;;;;;;;24.73;10.30;;;;;;;;;;4964923;28;20257;-75
2020/12/15 02:13:52;;;;;;;26.97;11.33;;;;;;;;;;4965748;28;20237;-75
2020/12/15 02:16:58;;;;;;;24.50;11.17;;;;;;;;;;4973021;28;20201;-76
2020/12/15 02:20:23;;;;;;;19.57;9.43;;;;;;;;;;4975800;28;20310;-75
2020/12/15 02:23:38;;;;;;;22.70;10.10;;;;;;;;;;4975330;28;20241;-75
2020/12/15 02:26:56;;;;;;;23.93;9.63;;;;;;;;;;4971198;28;20265;-76
2020/12/15 02:30:08;;;;;;;22.23;9.30;;;;;;;;;;4973242;28;20237;-76
2020/12/15 02:33:16;;;;;;;24.77;9.97;;;;;;;;;;4966354;28;20245;-75
2020/12/15 02:36:23;;;;;;;19.37;9.90;;;;;;;;;;4972740;28;20229;-76
2020/12/15 02:39:44;;;;;;;21.93;10.50;;;;;;;;;;4970087;28;20252;-76
2020/12/15 02:43:21;;;;;;;23.33;10.17;;;;;;;;;;4974678;28;20229;-75
2020/12/15 02:46:31;;;;;;;18.60;9.20;;;;;;;;;;4993699;28;20249;-75
2020/12/15 02:49:38;;;;;;;20.47;9.27;;;;;;;;;;4992678;28;20226;-75
2020/12/15 02:52:43;;;;;;;19.63;8.73;;;;;;;;;;4971528;28;20233;-76
2020/12/15 02:55:48;;;;;;;20.33;9.43;;;;;;;;;;4972346;28;20658;-76
2020/12/15 02:59:00;;;;;;;19.43;8.77;;;;;;;;;;4968139;28;20790;-76
2020/12/15 03:02:05;;;;;;;22.20;9.60;;;;;;;;;;4972129;28;20210;-76
2020/12/15 03:05:10;;;;;;;19.67;9.40;;;;;;;;;;4971449;28;20361;-76
2020/12/15 03:08:19;;;;;;;22.20;9.83;;;;;;;;;;4970053;28;20345;-75
2020/12/15 03:11:27;;;;;;;19.07;8.90;;;;;;;;;;4972789;28;20250;-76
2020/12/15 03:14:40;;;;;;;19.73;8.47;;;;;;;;;;4970157;28;20225;-76
2020/12/15 03:17:48;;;;;;;23.63;9.70;;;;;;;;;;4974426;28;20213;-75
2020/12/15 03:20:54;;;;;;;24.70;10.10;;;;;;;;;;4966865;28;20276;-75
2020/12/15 03:24:00;;;;;;;21.83;9.87;;;;;;;;;;4963175;28;20229;-74
2020/12/15 03:27:07;;;;;;;21.33;10.43;;;;;;;;;;4964285;28;20260;-75
2020/12/15 03:30:15;;;;;;;23.80;10.27;;;;;;;;;;4962027;28;20582;-75
2020/12/15 03:33:20;;;;;;;20.77;9.97;;;;;;;;;;4967741;28;20322;-75
2020/12/15 03:36:25;;;;;;;20.53;9.97;;;;;;;;;;4972393;28;20221;-74
2020/12/15 03:39:31;;;;;;;21.50;9.97;;;;;;;;;;4972250;28;20221;-75
2020/12/15 03:42:38;;;;;;;20.37;9.13;;;;;;;;;;4966543;28;20346;-75
2020/12/15 03:45:43;;;;;;;20.97;9.97;;;;;;;;;;4963578;28;20705;-75
2020/12/15 03:48:48;;;;;;;19.90;9.40;;;;;;;;;;4972707;28;20214;-75
2020/12/15 03:51:53;;;;;;;21.37;10.03;;;;;;;;;;4972184;28;20221;-75
2020/12/15 03:55:06;;;;;;;23.20;10.57;;;;;;;;;;4972978;28;20252;-76
2020/12/15 03:58:38;;;;;;;23.50;9.97;;;;;;;;;;4973656;28;20224;-77
2020/12/15 04:01:46;;;;;;;21.90;9.90;;;;;;;;;;4968517;28;20214;-76
2020/12/15 04:04:50;;;;;;;19.90;9.23;;;;;;;;;;4965698;28;20724;-76
2020/12/15 04:07:55;;;;;;;21.90;9.17;;;;;;;;;;4968210;28;20754;-75
2020/12/15 04:11:01;;;;;;;32.23;9.57;;;;;;;;;;4961963;28;20293;-76
2020/12/15 04:14:18;;;;;;;21.20;7.73;;;;;;;;;;4966326;28;20281;-75
2020/12/15 04:17:22;;;;;;;19.13;7.97;;;;;;;;;;4965647;28;20251;-75
2020/12/15 04:20:27;;;;;;;20.93;8.03;;;;;;;;;;4965053;28;20255;-75
2020/12/15 04:23:32;;;;;;;17.10;7.87;;;;;;;;;;4966132;28;20277;-75
2020/12/15 04:26:38;;;;;;;17.37;7.40;;;;;;;;;;4970726;28;20240;-76
2020/12/15 04:29:44;;;;;;;22.67;7.70;;;;;;;;;;4965566;28;20744;-75
2020/12/15 04:32:56;;;;;;;19.97;8.47;;;;;;;;;;4964078;28;20781;-76
2020/12/15 04:36:12;;;;;;;18.33;8.77;;;;;;;;;;4962696;28;20229;-75
2020/12/15 04:39:16;;;;;;;22.97;9.33;;;;;;;;;;4968098;28;20650;-75
2020/12/15 04:42:25;;;;;;;20.80;9.83;;;;;;;;;;4965583;28;20596;-75
2020/12/15 04:45:31;;;;;;;22.93;9.90;;;;;;;;;;4965155;28;20294;-76
2020/12/15 04:48:44;;;;;;;25.67;10.13;;;;;;;;;;4971828;28;20208;-75
2020/12/15 04:51:58;;;;;;;30.83;10.43;;;;;;;;;;4967170;28;20245;-76
2020/12/15 04:55:13;;;;;;;26.23;10.30;;;;;;;;;;4967191;28;20717;-76
2020/12/15 04:58:21;;;;;;;24.63;10.67;;;;;;;;;;4971645;28;20225;-76
2020/12/15 05:01:28;;;;;;;23.03;8.70;;;;;;;;;;4965900;28;20221;-76
2020/12/15 05:04:50;;;;;;;21.83;9.53;;;;;;;;;;4967889;28;20757;-76
2020/12/15 05:07:54;;;;;;;21.27;10.20;;;;;;;;;;4968648;28;20253;-76
2020/12/15 05:11:18;;;;;;;25.10;10.57;;;;;;;;;;4970552;28;20225;-76
2020/12/15 05:14:50;;;;;;;36.37;11.37;;;;;;;;;;4972365;28;20665;-76
2020/12/15 05:18:02;;;;;;;26.23;11.70;;;;;;;;;;4963318;28;20249;-75
2020/12/15 05:21:19;;;;;;;21.53;10.27;;;;;;;;;;4963316;28;20221;-76
2020/12/15 05:24:28;;;;;;;31.90;12.63;;;;;;;;;;4965854;28;20226;-76
2020/12/15 05:27:41;;;;;;;40.30;15.93;;;;;;;;;;4970654;28;20305;-75
2020/12/15 05:31:00;;;;;;;44.30;17.30;;;;;;;;;;4971322;28;20705;-76
2020/12/15 05:34:13;;;;;;;47.30;18.10;;;;;;;;;;4971625;28;20233;-75
2020/12/15 05:37:43;;;;;;;49.43;18.23;;;;;;;;;;4968637;28;20229;-76
2020/12/15 05:41:06;;;;;;;43.67;16.70;;;;;;;;;;4969965;28;20584;-76
2020/12/15 05:44:26;;;;;;;38.03;16.33;;;;;;;;;;4967931;28;20249;-76
2020/12/15 05:47:33;;;;;;;37.80;14.93;;;;;;;;;;4970004;28;20241;-76
2020/12/15 05:50:44;;;;;;;41.97;15.77;;;;;;;;;;4974237;28;20217;-76
2020/12/15 05:53:49;;;;;;;40.70;15.40;;;;;;;;;;4995884;28;20238;-75
2020/12/15 05:57:01;;;;;;;37.43;15.37;;;;;;;;;;4989171;28;20217;-75
2020/12/15 06:00:08;;;;;;;41.60;16.73;;;;;;;;;;4977679;28;20253;-76
2020/12/15 06:03:17;;;;;;;48.33;17.07;;;;;;;;;;4973003;28;20277;-76
2020/12/15 06:06:23;;;;;;;48.37;16.97;;;;;;;;;;4966752;28;20213;-76
2020/12/15 06:09:29;;;;;;;45.57;17.53;;;;;;;;;;4966674;28;20225;-76
2020/12/15 06:12:34;;;;;;;49.67;17.70;;;;;;;;;;4975646;28;20285;-76
2020/12/15 06:15:39;;;;;;;42.17;16.83;;;;;;;;;;4975196;28;20264;-76
2020/12/15 06:18:44;;;;;;;45.70;17.00;;;;;;;;;;4976835;28;20221;-75
2020/12/15 06:21:51;;;;;;;50.10;17.93;;;;;;;;;;4973059;28;20309;-78
2020/12/15 06:25:00;;;;;;;46.77;17.10;;;;;;;;;;4974822;28;20281;-76
2020/12/15 06:28:06;;;;;;;51.20;17.33;;;;;;;;;;4973260;28;20217;-76
2020/12/15 06:31:20;;;;;;;49.00;18.33;;;;;;;;;;4975238;28;20213;-75
2020/12/15 06:34:28;;;;;;;42.43;16.67;;;;;;;;;;4973017;28;20292;-75
2020/12/15 06:37:36;;;;;;;51.20;18.33;;;;;;;;;;4974013;28;20221;-74
2020/12/15 06:40:41;;;;;;;51.07;18.17;;;;;;;;;;4971676;28;20225;-75
2020/12/15 06:43:46;;;;;;;51.43;19.00;;;;;;;;;;4971644;28;20257;-75
2020/12/15 06:46:53;;;;;;;47.03;17.90;;;;;;;;;;4975329;28;20241;-75
2020/12/15 06:50:08;;;;;;;53.90;18.37;;;;;;;;;;4974644;28;20661;-76
2020/12/15 06:53:19;;;;;;;52.07;19.20;;;;;;;;;;4969608;28;20313;-75
2020/12/15 06:56:26;;;;;;;44.73;17.57;;;;;;;;;;4974063;28;20958;-76
2020/12/15 06:59:35;;;;;;;52.90;18.40;;;;;;;;;;4966332;28;20289;-76
2020/12/15 07:02:51;;;;;;;49.03;18.17;;;;;;;;;;4972407;28;20694;-76
2020/12/15 07:06:07;;;;;;;62.67;19.23;;;;;;;;;;4973266;28;20213;-75
2020/12/15 07:09:16;;;;;;;58.53;19.63;;;;;;;;;;4973359;28;20534;-76
2020/12/15 07:12:20;;;;;;;41.70;16.60;;;;;;;;;;4976138;28;20233;-76
2020/12/15 07:15:25;;;;;;;47.33;17.67;;;;;;;;;;4975476;28;20268;-76
2020/12/15 07:18:32;;;;;;;41.83;16.67;;;;;;;;;;4970006;28;20638;-77
2020/12/15 07:21:37;;;;;;;44.90;17.13;;;;;;;;;;4975702;28;20293;-75
2020/12/15 07:24:43;;;;;;;47.47;18.67;;;;;;;;;;4985944;28;20488;-75
2020/12/15 07:27:48;;;;;;;46.37;17.67;;;;;;;;;;4981085;28;20206;-74
2020/12/15 07:30:53;;;;;;;39.33;16.43;;;;;;;;;;4992924;28;20225;-75
2020/12/15 07:34:08;;;;;;;56.33;18.30;;;;;;;;;;5001579;28;20229;-74
2020/12/15 07:37:19;;;;;;;53.70;18.43;;;;;;;;;;4975844;28;20197;-75
2020/12/15 07:40:28;;;;;;;49.90;19.27;;;;;;;;;;4971260;28;20225;-75
2020/12/15 07:43:33;;;;;;;46.37;19.43;;;;;;;;;;4976014;28;20309;-75
2020/12/15 07:46:38;;;;;;;51.80;19.43;;;;;;;;;;4978926;28;20281;-74
2020/12/15 07:49:44;;;;;;;56.40;20.60;;;;;;;;;;4976208;28;20237;-75
2020/12/15 07:52:48;;;;;;;57.00;20.53;;;;;;;;;;4973287;28;20280;-75
2020/12/15 07:56:02;;;;;;;48.30;19.00;;;;;;;;;;4973804;28;20198;-75
2020/12/15 07:59:12;;;;;;;48.33;19.33;;;;;;;;;;4973853;28;20234;-76
2020/12/15 08:02:18;;;;;;;43.23;18.40;;;;;;;;;;4972517;28;20357;-77
2020/12/15 08:05:24;;;;;;;45.07;18.40;;;;;;;;;;4966723;28;20386;-76
2020/12/15 08:08:29;;;;;;;50.83;18.60;;;;;;;;;;4957416;28;20294;-75
2020/12/15 08:11:37;;;;;;;48.83;18.03;;;;;;;;;;4971894;28;20297;-75
2020/12/15 08:14:45;;;;;;;44.53;17.60;;;;;;;;;;4969558;28;20612;-76
2020/12/15 08:17:50;;;;;;;45.23;17.63;;;;;;;;;;4972031;28;20217;-76
2020/12/15 08:21:01;;;;;;;52.00;19.63;;;;;;;;;;4971447;28;20210;-76
2020/12/15 08:24:11;;;;;;;48.67;20.00;;;;;;;;;;4971437;28;20237;-75
2020/12/15 08:27:17;;;;;;;56.57;18.13;;;;;;;;;;4972286;28;20587;-76
2020/12/15 08:30:22;;;;;;;50.07;19.50;;;;;;;;;;4972708;28;20752;-76
2020/12/15 08:33:27;;;;;;;45.83;17.80;;;;;;;;;;4972377;28;20735;-75
2020/12/15 08:36:32;;;;;;;68.53;20.93;;;;;;;;;;4965504;28;20788;-74
2020/12/15 08:39:38;;;;;;;47.67;17.60;;;;;;;;;;4972236;28;20212;-76
2020/12/15 08:42:44;;;;;;;43.03;17.33;;;;;;;;;;4966034;28;20237;-74
2020/12/15 08:45:48;;;;;;;41.73;16.67;;;;;;;;;;4969759;28;20272;-75
2020/12/15 08:48:53;;;;;;;38.53;15.80;;;;;;;;;;4968599;28;20260;-76
2020/12/15 08:51:58;;;;;;;53.73;18.30;;;;;;;;;;4957036;28;20214;-75
2020/12/15 08:55:03;;;;;;;37.23;15.20;;;;;;;;;;4972105;28;20255;-75
2020/12/15 08:58:09;;;;;;;42.97;17.47;;;;;;;;;;4972043;28;20229;-75
2020/12/15 09:01:14;;;;;;;45.20;16.83;;;;;;;;;;4970721;28;20205;-75
2020/12/15 09:04:25;;;;;;;48.23;16.73;;;;;;;;;;4968451;28;20249;-74
2020/12/15 09:07:31;;;;;;;47.47;16.80;;;;;;;;;;4971617;28;20241;-74
2020/12/15 09:10:38;;;;;;;43.30;16.90;;;;;;;;;;4979773;28;20205;-74
2020/12/15 09:13:57;;;;;;;42.20;17.33;;;;;;;;;;4974127;28;20241;-75
2020/12/15 09:17:02;;;;;;;48.53;17.17;;;;;;;;;;4976837;28;20213;-74
2020/12/15 09:20:08;;;;;;;39.97;16.27;;;;;;;;;;4979397;28;20213;-75
2020/12/15 09:23:14;;;;;;;40.20;16.20;;;;;;;;;;4980118;28;20252;-74
2020/12/15 09:26:20;;;;;;;41.57;16.07;;;;;;;;;;4974070;28;20721;-75
2020/12/15 09:29:27;;;;;;;40.97;15.83;;;;;;;;;;4955832;28;20229;-75
2020/12/15 09:32:35;;;;;;;38.80;16.37;;;;;;;;;;4964945;28;20257;-75
2020/12/15 09:35:44;;;;;;;42.50;16.20;;;;;;;;;;4964427;28;20214;-74
2020/12/15 09:38:49;;;;;;;41.50;16.90;;;;;;;;;;4969030;28;20610;-74
2020/12/15 09:41:57;;;;;;;42.90;16.87;;;;;;;;;;4966251;28;20225;-74
2020/12/15 09:45:02;;;;;;;48.93;17.40;;;;;;;;;;4975325;28;20225;-74
2020/12/15 09:48:07;;;;;;;44.63;15.27;;;;;;;;;;4980781;28;20206;-74
2020/12/15 09:51:12;;;;;;;44.80;16.80;;;;;;;;;;4998401;28;20216;-74
2020/12/15 09:54:16;;;;;;;40.43;16.07;;;;;;;;;;4973572;28;20292;-74
2020/12/15 09:57:21;;;;;;;48.63;16.90;;;;;;;;;;4970746;28;20306;-75
2020/12/15 10:00:27;;;;;;;42.77;16.50;;;;;;;;;;4977390;28;20286;-75
2020/12/15 10:03:31;;;;;;;46.20;17.90;;;;;;;;;;4976356;28;20234;-75
2020/12/15 10:06:36;;;;;;;51.90;17.40;;;;;;;;;;4979421;28;20216;-75
2020/12/15 10:09:41;;;;;;;38.23;15.77;;;;;;;;;;4978549;28;20241;-75
2020/12/15 10:12:47;;;;;;;34.90;15.20;;;;;;;;;;4979938;28;20209;-77
2020/12/15 10:15:52;;;;;;;40.07;16.30;;;;;;;;;;4970442;28;20269;-75
2020/12/15 10:18:57;;;;;;;40.03;15.83;;;;;;;;;;4978141;28;20225;-75
2020/12/15 10:22:02;;;;;;;37.67;14.67;;;;;;;;;;4980447;28;20325;-75
2020/12/15 10:25:06;;;;;;;45.57;17.17;;;;;;;;;;4978429;28;20305;-75
2020/12/15 10:28:12;;;;;;;39.30;15.40;;;;;;;;;;4978236;28;20609;-76
2020/12/15 10:31:17;;;;;;;34.23;15.30;;;;;;;;;;4977845;28;20194;-76
2020/12/15 10:34:21;;;;;;;52.70;16.20;;;;;;;;;;4973948;28;20229;-76
2020/12/15 10:37:26;;;;;;;51.03;19.57;;;;;;;;;;4978921;28;20321;-75
2020/12/15 10:40:31;;;;;;;44.77;16.23;;;;;;;;;;4975092;28;20217;-76
2020/12/15 10:43:36;;;;;;;39.90;15.07;;;;;;;;;;4975445;28;20253;-76
2020/12/15 10:46:41;;;;;;;37.80;16.47;;;;;;;;;;4971541;28;20209;-75
2020/12/15 10:49:46;;;;;;;42.00;16.50;;;;;;;;;;4968171;28;20294;-74
2020/12/15 10:52:50;;;;;;;37.30;16.10;;;;;;;;;;4974261;28;20647;-74
2020/12/15 10:55:55;;;;;;;44.80;16.30;;;;;;;;;;4973219;28;20260;-75
2020/12/15 10:59:00;;;;;;;37.67;15.90;;;;;;;;;;4971646;28;20229;-75
2020/12/15 11:02:06;;;;;;;36.57;16.50;;;;;;;;;;4975023;28;20218;-75
2020/12/15 11:05:11;;;;;;;39.10;17.13;;;;;;;;;;4974777;28;20265;-75
2020/12/15 11:08:15;;;;;;;38.43;16.00;;;;;;;;;;4974561;28;20225;-75
2020/12/15 11:11:20;;;;;;;41.70;16.73;;;;;;;;;;4971188;28;20253;-75
2020/12/15 11:14:25;;;;;;;40.63;15.40;;;;;;;;;;4962988;28;20234;-75
2020/12/15 11:17:31;;;;;;;50.53;16.00;;;;;;;;;;4970487;28;20225;-74
2020/12/15 11:20:36;;;;;;;53.27;17.90;;;;;;;;;;4970629;28;20224;-75
2020/12/15 11:23:41;;;;;;;46.17;16.13;;;;;;;;;;4969233;28;20241;-75
2020/12/15 11:26:46;;;;;;;43.17;17.67;;;;;;;;;;4976781;28;20213;-75
2020/12/15 11:29:50;;;;;;;37.97;17.00;;;;;;;;;;4969531;28;20724;-74
2020/12/15 11:32:56;;;;;;;36.60;16.00;;;;;;;;;;4970597;28;20260;-73
2020/12/15 11:36:01;;;;;;;39.73;16.60;;;;;;;;;;4971394;28;20306;-75
2020/12/15 11:39:06;;;;;;;36.77;16.30;;;;;;;;;;4969663;28;20550;-73
2020/12/15 11:42:12;;;;;;;44.77;17.53;;;;;;;;;;4965944;28;20763;-73
2020/12/15 11:45:17;;;;;;;40.70;17.57;;;;;;;;;;4971078;28;20362;-73
2020/12/15 11:48:22;;;;;;;48.83;17.53;;;;;;;;;;4968155;28;20234;-73
2020/12/15 11:51:27;;;;;;;43.07;16.90;;;;;;;;;;4965443;28;20214;-74
2020/12/15 11:54:33;;;;;;;40.53;16.90;;;;;;;;;;4968475;28;20234;-73
2020/12/15 11:57:38;;;;;;;51.47;18.33;;;;;;;;;;4964639;28;20210;-74
2020/12/15 12:00:43;;;;;;;43.80;17.90;;;;;;;;;;4964785;28;20221;-74
2020/12/15 12:03:48;;;;;;;63.80;18.50;;;;;;;;;;4963898;28;20233;-73
2020/12/15 12:06:52;;;;;;;46.30;17.83;;;;;;;;;;4967604;28;20214;-74
2020/12/15 12:09:57;;;;;;;49.50;17.70;;;;;;;;;;4968984;28;20225;-74
2020/12/15 12:13:02;;;;;;;42.30;17.00;;;;;;;;;;4963952;28;20233;-74
2020/12/15 12:16:08;;;;;;;47.33;20.37;;;;;;;;;;4971546;28;20500;-73
2020/12/15 12:19:14;;;;;;;40.77;17.87;;;;;;;;;;4965784;28;20709;-74
2020/12/15 12:22:19;;;;;;;48.03;17.50;;;;;;;;;;4969328;28;20592;-73
2020/12/15 12:25:23;;;;;;;37.50;15.90;;;;;;;;;;4972163;28;20274;-74
2020/12/15 12:28:28;;;;;;;38.00;15.37;;;;;;;;;;5002304;28;20193;-74
2020/12/15 12:31:33;;;;;;;37.20;14.87;;;;;;;;;;4990425;28;20197;-75
2020/12/15 12:34:39;;;;;;;42.03;14.73;;;;;;;;;;4976605;28;21084;-75
2020/12/15 12:37:44;;;;;;;34.27;13.93;;;;;;;;;;4966951;28;20333;-75
2020/12/15 12:40:49;;;;;;;38.00;15.03;;;;;;;;;;4971969;28;20293;-75
2020/12/15 12:43:54;;;;;;;42.33;15.33;;;;;;;;;;4971925;28;20711;-74
2020/12/15 12:46:59;;;;;;;53.33;15.80;;;;;;;;;;4980709;28;20217;-74
2020/12/15 12:50:05;;;;;;;34.30;13.90;;;;;;;;;;4969922;28;20225;-74
2020/12/15 12:53:10;;;;;;;44.13;15.00;;;;;;;;;;4969361;28;20237;-74
2020/12/15 12:56:14;;;;;;;35.37;14.83;;;;;;;;;;4968047;28;20209;-74
2020/12/15 12:59:19;;;;;;;36.27;15.17;;;;;;;;;;4971043;28;20614;-74
2020/12/15 13:02:24;;;;;;;33.47;14.00;;;;;;;;;;4969895;28;20588;-74
2020/12/15 13:05:30;;;;;;;41.87;15.80;;;;;;;;;;4968253;28;20225;-75
2020/12/15 13:08:38;;;;;;;49.50;17.70;;;;;;;;;;4976212;28;20233;-75
2020/12/15 13:11:42;;;;;;;40.03;16.67;;;;;;;;;;4966935;28;20221;-74
2020/12/15 13:14:47;;;;;;;37.93;17.40;;;;;;;;;;4974071;28;20240;-75
2020/12/15 13:17:52;;;;;;;45.27;17.53;;;;;;;;;;4974621;28;20212;-75
2020/12/15 13:20:57;;;;;;;43.43;18.37;;;;;;;;;;4968832;28;20206;-74
2020/12/15 13:24:02;;;;;;;43.50;17.73;;;;;;;;;;4972895;28;20294;-75
2020/12/15 13:27:06;;;;;;;42.07;16.33;;;;;;;;;;4969922;28;20253;-76
2020/12/15 13:30:11;;;;;;;42.33;17.73;;;;;;;;;;4971668;28;20214;-75
2020/12/15 13:33:16;;;;;;;49.03;18.17;;;;;;;;;;4974066;28;20654;-76
2020/12/15 13:36:26;;;;;;;47.47;17.27;;;;;;;;;;4968557;28;20737;-76
2020/12/15 13:39:33;;;;;;;40.53;16.20;;;;;;;;;;4972526;28;20298;-75
2020/12/15 13:42:39;;;;;;;38.63;16.87;;;;;;;;;;4967744;28;20269;-75
2020/12/15 13:45:44;;;;;;;46.63;19.00;;;;;;;;;;4983430;28;20242;-76
2020/12/15 13:48:55;;;;;;;44.33;21.97;;;;;;;;;;4980212;28;20496;-75
2020/12/15 13:52:01;;;;;;;43.73;17.13;;;;;;;;;;4969326;28;20322;-75
2020/12/15 13:55:06;;;;;;;39.03;16.77;;;;;;;;;;4976910;28;20253;-74
2020/12/15 13:58:11;;;;;;;39.50;16.33;;;;;;;;;;4971588;28;20252;-75
2020/12/15 14:01:15;;;;;;;41.60;18.37;;;;;;;;;;4976878;28;20236;-75
2020/12/15 14:04:20;;;;;;;40.43;17.00;;;;;;;;;;4986692;28;20256;-76
2020/12/15 14:07:26;;;;;;;41.80;16.77;;;;;;;;;;4995070;28;20281;-75
2020/12/15 14:10:31;;;;;;;45.57;18.10;;;;;;;;;;4992956;28;20487;-77
2020/12/15 14:13:35;;;;;;;42.27;17.57;;;;;;;;;;4975805;28;20291;-75
2020/12/15 14:16:43;;;;;;;42.83;17.67;;;;;;;;;;4966587;28;20258;-76
2020/12/15 14:19:48;;;;;;;45.17;18.23;;;;;;;;;;4971657;28;20206;-76
2020/12/15 14:22:53;;;;;;;41.67;17.20;;;;;;;;;;4974197;28;20773;-74
2020/12/15 14:25:58;;;;;;;46.97;17.73;;;;;;;;;;4984706;28;20240;-76
2020/12/15 14:29:02;;;;;;;48.70;17.83;;;;;;;;;;4974186;28;20205;-76
2020/12/15 14:32:06;;;;;;;47.03;17.33;;;;;;;;;;4974602;28;20578;-76
2020/12/15 14:35:11;;;;;;;47.93;18.97;;;;;;;;;;4973444;28;20248;-73
2020/12/15 14:38:17;;;;;;;60.00;23.60;;;;;;;;;;4966943;28;20210;-74
2020/12/15 14:41:22;;;;;;;74.03;26.50;;;;;;;;;;4973870;28;20270;-75
2020/12/15 14:44:27;;;;;;;77.43;31.20;;;;;;;;;;4973484;28;20233;-75
2020/12/15 14:47:32;;;;;;;51.17;21.80;;;;;;;;;;4984223;28;20646;-75
2020/12/15 14:50:37;;;;;;;42.83;18.10;;;;;;;;;;4961405;28;20623;-75
2020/12/15 14:53:42;;;;;;;42.33;18.00;;;;;;;;;;4974646;28;20281;-75
2020/12/15 14:56:48;;;;;;;52.77;19.93;;;;;;;;;;4966795;28;20698;-75
2020/12/15 14:59:53;;;;;;;41.97;17.93;;;;;;;;;;4968540;28;20240;-74
2020/12/15 15:02:58;;;;;;;47.00;18.60;;;;;;;;;;4972818;28;20233;-75
2020/12/15 15:06:04;;;;;;;52.70;18.43;;;;;;;;;;4973589;28;20273;-74
2020/12/15 15:09:09;;;;;;;42.87;18.33;;;;;;;;;;4975024;28;20225;-74
2020/12/15 15:12:14;;;;;;;48.03;18.60;;;;;;;;;;4974953;28;20277;-74
2020/12/15 15:15:19;;;;;;;54.87;18.43;;;;;;;;;;4976461;28;20262;-75
2020/12/15 15:18:23;;;;;;;78.53;28.17;;;;;;;;;;4969669;28;20710;-76
2020/12/15 15:21:28;;;;;;;80.87;31.93;;;;;;;;;;4975159;28;20212;-76
2020/12/15 15:24:34;;;;;;;49.70;20.17;;;;;;;;;;4974346;28;20261;-76
2020/12/15 15:27:38;;;;;;;57.03;19.07;;;;;;;;;;4974629;28;20681;-76
2020/12/15 15:30:43;;;;;;;48.07;19.77;;;;;;;;;;4972526;28;20202;-75
2020/12/15 15:33:49;;;;;;;49.43;19.50;;;;;;;;;;4963665;28;20752;-75
2020/12/15 15:36:54;;;;;;;44.50;18.30;;;;;;;;;;4972992;28;20634;-74
2020/12/15 15:40:00;;;;;;;49.07;18.53;;;;;;;;;;4974501;28;20206;-74
2020/12/15 15:43:05;;;;;;;47.60;17.73;;;;;;;;;;4990523;28;20216;-74
2020/12/15 15:46:09;;;;;;;53.90;19.77;;;;;;;;;;4991596;28;20228;-74
2020/12/15 15:49:16;;;;;;;46.33;18.57;;;;;;;;;;4973854;28;20228;-75
2020/12/15 15:52:21;;;;;;;55.97;20.00;;;;;;;;;;4967693;28;20217;-75
2020/12/15 15:55:26;;;;;;;50.97;21.20;;;;;;;;;;4973822;28;20253;-75
2020/12/15 15:58:31;;;;;;;57.03;20.83;;;;;;;;;;4972368;28;20261;-75
2020/12/15 16:01:37;;;;;;;55.57;20.93;;;;;;;;;;4970442;28;20213;-75
2020/12/15 16:04:42;;;;;;;48.13;19.97;;;;;;;;;;4974836;28;20241;-75
2020/12/15 16:07:48;;;;;;;46.00;19.73;;;;;;;;;;4975242;28;20225;-76
2020/12/15 16:10:56;;;;;;;54.30;21.40;;;;;;;;;;4976763;28;20352;-75
2020/12/15 16:14:02;;;;;;;48.43;20.07;;;;;;;;;;4973270;28;20233;-74
2020/12/15 16:17:07;;;;;;;51.97;20.53;;;;;;;;;;4975398;28;20280;-74
2020/12/15 16:20:14;;;;;;;48.43;20.23;;;;;;;;;;4977903;28;20234;-74
2020/12/15 16:23:19;;;;;;;52.93;20.97;;;;;;;;;;4974786;28;20241;-75
2020/12/15 16:26:25;;;;;;;47.50;19.03;;;;;;;;;;4981240;28;20233;-75
2020/12/15 16:29:30;;;;;;;49.33;19.80;;;;;;;;;;4972172;28;20213;-75
2020/12/15 16:32:35;;;;;;;52.40;20.50;;;;;;;;;;4977022;28;20205;-77
2020/12/15 16:35:40;;;;;;;50.90;21.73;;;;;;;;;;4976569;28;20206;-77
2020/12/15 16:38:45;;;;;;;49.30;20.73;;;;;;;;;;4979223;28;20204;-77
2020/12/15 16:41:51;;;;;;;49.97;21.07;;;;;;;;;;4972827;28;20295;-77
2020/12/15 16:44:55;;;;;;;59.23;21.73;;;;;;;;;;4972126;28;20301;-76
2020/12/15 16:48:00;;;;;;;97.77;36.53;;;;;;;;;;5093256;22;20242;-76
2020/12/15 16:51:04;;;;;;;49.37;20.80;;;;;;;;;;5045123;28;20596;-76
2020/12/15 16:54:11;;;;;;;49.97;19.47;;;;;;;;;;5031636;28;20786;-77
2020/12/15 16:57:17;;;;;;;45.53;20.23;;;;;;;;;;5028239;28;20243;-81
2020/12/15 17:00:21;;;;;;;50.77;20.50;;;;;;;;;;5040769;28;20206;-79
2020/12/15 17:03:27;;;;;;;50.00;20.43;;;;;;;;;;5040286;28;20305;-78
2020/12/15 17:06:32;;;;;;;60.57;21.40;;;;;;;;;;5036694;28;20230;-79
2020/12/15 17:09:37;;;;;;;54.03;21.50;;;;;;;;;;5035336;28;20661;-78
2020/12/15 17:12:42;;;;;;;50.10;21.23;;;;;;;;;;5032797;28;20670;-78
2020/12/15 17:15:46;;;;;;;50.97;22.63;;;;;;;;;;5032924;28;20257;-79
2020/12/15 17:18:53;;;;;;;50.30;22.07;;;;;;;;;;5035612;28;20366;-77
2020/12/15 17:21:57;;;;;;;54.93;20.83;;;;;;;;;;5037014;28;20570;-78
2020/12/15 17:25:02;;;;;;;52.17;21.53;;;;;;;;;;5038893;28;20219;-79
2020/12/15 17:28:07;;;;;;;51.83;22.07;;;;;;;;;;5035643;28;20219;-79
2020/12/15 17:31:13;;;;;;;58.37;22.27;;;;;;;;;;5044457;28;20243;-78
2020/12/15 17:34:18;;;;;;;60.03;24.30;;;;;;;;;;5046618;28;20207;-78
2020/12/15 17:37:23;;;;;;;55.67;22.33;;;;;;;;;;5034621;28;20307;-80
2020/12/15 17:40:27;;;;;;;52.20;21.30;;;;;;;;;;5037302;28;20211;-81
2020/12/15 17:43:33;;;;;;;52.80;22.00;;;;;;;;;;5047396;28;20211;-80
2020/12/15 17:46:38;;;;;;;50.07;21.50;;;;;;;;;;5044424;28;20730;-81
2020/12/15 17:49:44;;;;;;;51.53;21.37;;;;;;;;;;5034688;28;20211;-80
2020/12/15 17:52:52;;;;;;;58.63;21.97;;;;;;;;;;5034464;28;20227;-81
2020/12/15 17:55:57;;;;;;;52.93;22.27;;;;;;;;;;5034744;28;20220;-80
2020/12/15 17:59:02;;;;;;;62.40;22.73;;;;;;;;;;5032496;28;20284;-78
2020/12/15 18:02:06;;;;;;;53.77;20.23;;;;;;;;;;5035728;28;20281;-81
2020/12/15 18:05:10;;;;;;;54.87;21.60;;;;;;;;;;5042001;28;20234;-80
2020/12/15 18:08:18;;;;;;;51.57;22.33;;;;;;;;;;5042176;28;20200;-80
2020/12/15 18:11:24;;;;;;;56.37;21.67;;;;;;;;;;5041331;28;20251;-81